Time;durP1;ratioP1;P1;durP2;ratioP2;P2;SDS_P1;SDS_P2;PMS_P1;PMS_P2;Temp;Humidity;BMP_temperature;BMP_pressure;BME280_temperature;BME280_humidity;BME280_pressure;Samples;Min_cycle;Max_cycle;Signal;HPM_P1;HPM_P2
2022/12/07 00:01:27;;;;;;;19.48;5.05;;;2.60;99.90;;;;;;5017766;28;20087;-70
2022/12/07 00:03:56;;;;;;;18.80;4.63;;;2.90;99.90;;;;;;4999814;28;20370;-71
2022/12/07 00:06:22;;;;;;;12.13;3.50;;;2.80;99.90;;;;;;5017108;28;20434;-71
2022/12/07 00:08:48;;;;;;;15.45;3.70;;;2.80;99.90;;;;;;5027820;28;20144;-72
2022/12/07 00:11:17;;;;;;;12.80;3.05;;;2.80;99.90;;;;;;5037140;28;20461;-71
2022/12/07 00:13:43;;;;;;;15.02;3.03;;;2.90;99.90;;;;;;5036366;28;20080;-71
2022/12/07 00:16:15;;;;;;;13.68;3.42;;;2.90;99.90;;;;;;5036909;28;20045;-71
2022/12/07 00:18:41;;;;;;;14.02;3.33;;;2.90;99.90;;;;;;5003739;28;20073;-71
2022/12/07 00:21:11;;;;;;;18.52;3.60;;;2.90;99.90;;;;;;5019213;28;20037;-71
2022/12/07 00:23:37;;;;;;;12.88;3.20;;;2.90;99.90;;;;;;5024332;28;20060;-71
2022/12/07 00:26:08;;;;;;;14.90;3.35;;;3.00;99.90;;;;;;5016825;28;20042;-71
2022/12/07 00:28:34;;;;;;;11.98;3.22;;;3.00;99.90;;;;;;5021311;28;20461;-72
2022/12/07 00:31:03;;;;;;;13.35;3.53;;;3.30;99.90;;;;;;5016914;28;20129;-71
2022/12/07 00:33:29;;;;;;;13.48;2.90;;;3.00;99.90;;;;;;5016728;28;20458;-71
2022/12/07 00:35:56;;;;;;;13.40;3.30;;;2.90;99.90;;;;;;5016809;28;20045;-71
2022/12/07 00:38:22;;;;;;;12.95;2.92;;;2.90;99.90;;;;;;5016440;28;20477;-72
2022/12/07 00:40:58;;;;;;;16.25;3.00;;;2.90;99.90;;;;;;5016569;28;20034;-70
2022/12/07 00:43:23;;;;;;;14.52;2.92;;;3.00;99.90;;;;;;5017202;28;20029;-71
2022/12/07 00:45:49;;;;;;;13.98;2.60;;;2.90;99.90;;;;;;5017956;28;20374;-71
2022/12/07 00:48:14;;;;;;;11.52;2.60;;;2.90;99.90;;;;;;5017763;28;20057;-72
2022/12/07 00:50:40;;;;;;;11.93;2.60;;;2.80;99.90;;;;;;5027756;28;20103;-72
2022/12/07 00:53:06;;;;;;;13.48;2.55;;;2.80;99.90;;;;;;5016301;28;20037;-70
2022/12/07 00:55:35;;;;;;;12.60;2.53;;;2.80;99.90;;;;;;5016153;28;20458;-72
2022/12/07 00:58:01;;;;;;;13.93;2.60;;;2.80;99.90;;;;;;5023397;28;20064;-71
2022/12/07 01:00:27;;;;;;;13.88;2.72;;;2.80;99.90;;;;;;5024047;28;20069;-71
2022/12/07 01:02:52;;;;;;;11.05;2.65;;;2.70;99.90;;;;;;5021275;28;20049;-71
2022/12/07 01:05:21;;;;;;;10.55;2.50;;;2.70;99.90;;;;;;5015918;28;20068;-71
2022/12/07 01:07:47;;;;;;;12.82;2.22;;;2.70;99.90;;;;;;5016025;28;20077;-71
2022/12/07 01:10:13;;;;;;;17.38;3.10;;;2.70;99.90;;;;;;4998605;28;20029;-71
2022/12/07 01:12:39;;;;;;;19.70;2.65;;;2.80;99.90;;;;;;5015881;28;20107;-70
2022/12/07 01:15:06;;;;;;;15.13;2.70;;;2.80;99.90;;;;;;5027306;28;20456;-71
2022/12/07 01:17:31;;;;;;;13.55;3.08;;;2.80;99.90;;;;;;5016004;28;20045;-71
2022/12/07 01:19:57;;;;;;;10.98;2.85;;;2.90;99.90;;;;;;5015769;28;20070;-71
2022/12/07 01:22:23;;;;;;;12.32;2.80;;;2.90;99.90;;;;;;5015684;28;20042;-71
2022/12/07 01:24:51;;;;;;;10.95;2.65;;;2.90;99.90;;;;;;5015831;28;20096;-71
2022/12/07 01:27:20;;;;;;;14.18;2.50;;;2.90;99.90;;;;;;5015707;28;20034;-71
2022/12/07 01:29:45;;;;;;;9.13;2.30;;;2.90;99.90;;;;;;5016484;28;20433;-70
2022/12/07 01:32:11;;;;;;;10.35;2.50;;;2.90;99.90;;;;;;5015383;28;20065;-71
2022/12/07 01:34:36;;;;;;;15.18;2.70;;;2.90;99.90;;;;;;5015964;28;20046;-71
2022/12/07 01:37:02;;;;;;;16.88;2.72;;;2.90;99.90;;;;;;5015715;28;20046;-71
2022/12/07 01:39:31;;;;;;;10.05;2.10;;;2.90;99.90;;;;;;5015104;28;20065;-71
2022/12/07 01:41:56;;;;;;;12.90;2.80;;;2.80;99.90;;;;;;5015726;28;20378;-72
2022/12/07 01:44:27;;;;;;;10.88;2.15;;;2.80;99.90;;;;;;5028415;28;20124;-72
2022/12/07 01:46:58;;;;;;;9.38;2.00;;;2.70;99.90;;;;;;5017410;28;20073;-70
2022/12/07 01:49:32;;;;;;;12.43;2.30;;;2.70;99.90;;;;;;5034897;28;20069;-71
2022/12/07 01:52:19;;;;;;;12.07;2.25;;;2.70;99.90;;;;;;5016259;28;20045;-71
2022/12/07 01:54:47;;;;;;;9.27;2.22;;;2.80;99.90;;;;;;5015237;28;20125;-72
2022/12/07 01:57:15;;;;;;;11.20;2.45;;;2.80;99.90;;;;;;5015243;28;20041;-71
2022/12/07 01:59:42;;;;;;;13.80;2.10;;;3.50;99.90;;;;;;5018966;28;20354;-70
2022/12/07 02:02:16;;;;;;;11.75;2.30;;;3.00;99.90;;;;;;5026048;28;20129;-70
2022/12/07 02:04:42;;;;;;;9.73;1.63;;;3.00;99.90;;;;;;5015171;28;20405;-72
2022/12/07 02:07:08;;;;;;;13.68;2.08;;;3.10;99.90;;;;;;5015406;28;20061;-71
2022/12/07 02:09:34;;;;;;;11.23;2.22;;;3.10;99.90;;;;;;5015175;28;20042;-72
2022/12/07 02:11:59;;;;;;;10.93;2.28;;;3.10;99.90;;;;;;5015107;28;20103;-71
2022/12/07 02:14:25;;;;;;;11.38;1.90;;;3.10;99.90;;;;;;5024482;28;20037;-71
2022/12/07 02:17:06;;;;;;;9.63;1.98;;;3.10;99.90;;;;;;5015244;28;20434;-71
2022/12/07 02:19:40;;;;;;;10.85;1.85;;;3.10;99.90;;;;;;5020470;28;20098;-71
2022/12/07 02:22:30;;;;;;;10.95;2.08;;;3.10;99.90;;;;;;5018152;28;20049;-72
2022/12/07 02:25:01;;;;;;;10.65;1.75;;;3.00;99.90;;;;;;5038631;28;20050;-71
2022/12/07 02:27:50;;;;;;;10.00;1.75;;;3.00;99.90;;;;;;5038731;28;20034;-71
2022/12/07 02:30:21;;;;;;;12.13;2.58;;;2.90;99.90;;;;;;5018722;28;20120;-71
2022/12/07 02:32:49;;;;;;;10.48;1.92;;;2.90;99.90;;;;;;5018761;28;20046;-70
2022/12/07 02:35:23;;;;;;;8.27;1.98;;;3.00;99.90;;;;;;5018777;28;20117;-71
2022/12/07 02:38:05;;;;;;;13.63;2.10;;;2.80;99.90;;;;;;5018876;28;20099;-71
2022/12/07 02:40:41;;;;;;;9.25;2.08;;;2.70;99.90;;;;;;5018798;28;20050;-72
2022/12/07 02:43:33;;;;;;;10.20;2.13;;;2.70;99.90;;;;;;5024942;28;20400;-71
2022/12/07 02:46:08;;;;;;;12.85;2.13;;;2.70;99.90;;;;;;5038401;28;20056;-72
2022/12/07 02:51:43;;;;;;;12.02;2.28;;;2.80;99.90;;;;;;5035203;28;20128;-71
2022/12/07 02:54:13;;;;;;;16.58;2.80;;;2.80;99.90;;;;;;5001002;28;20056;-72
2022/12/07 02:57:04;;;;;;;19.58;2.90;;;2.80;99.90;;;;;;5018455;28;20376;-71
2022/12/07 02:59:51;;;;;;;14.15;2.83;;;2.90;99.90;;;;;;4983830;28;20049;-71
2022/12/07 03:02:31;;;;;;;12.93;2.13;;;3.00;99.90;;;;;;5038136;28;20037;-71
2022/12/07 03:05:18;;;;;;;12.68;2.38;;;3.10;99.90;;;;;;5037724;28;20460;-72
2022/12/07 03:07:50;;;;;;;10.00;2.00;;;3.20;99.90;;;;;;5023004;28;20057;-71
2022/12/07 03:10:43;;;;;;;9.55;2.08;;;3.20;99.90;;;;;;5018398;28;20497;-72
2022/12/07 03:13:40;;;;;;;9.98;2.30;;;3.30;99.90;;;;;;5018554;28;20045;-71
2022/12/07 03:16:12;;;;;;;9.80;1.85;;;3.30;99.90;;;;;;5017807;28;20081;-72
2022/12/07 03:18:44;;;;;;;11.32;2.47;;;3.40;99.90;;;;;;5017886;28;20878;-71
2022/12/07 03:21:15;;;;;;;12.73;2.17;;;3.40;99.90;;;;;;5015447;28;20052;-71
2022/12/07 03:23:47;;;;;;;8.90;1.90;;;3.40;99.90;;;;;;5017905;28;20041;-71
2022/12/07 03:26:17;;;;;;;8.02;1.52;;;3.40;99.90;;;;;;5018629;28;20378;-71
2022/12/07 03:28:48;;;;;;;12.05;1.90;;;3.40;99.90;;;;;;5017861;28;20109;-71
2022/12/07 03:31:25;;;;;;;10.35;1.60;;;3.40;99.90;;;;;;5018188;28;20057;-71
2022/12/07 03:33:56;;;;;;;8.40;1.65;;;3.30;99.90;;;;;;5017558;28;20050;-71
2022/12/07 03:36:36;;;;;;;9.85;1.73;;;3.30;99.90;;;;;;5031282;28;20048;-71
2022/12/07 03:39:31;;;;;;;8.65;2.33;;;3.30;99.90;;;;;;5020082;28;20363;-72
2022/12/07 03:41:59;;;;;;;6.53;1.52;;;3.30;99.90;;;;;;5017611;28;20107;-72
2022/12/07 03:44:26;;;;;;;11.23;2.00;;;3.40;99.90;;;;;;5025821;28;20051;-72
2022/12/07 03:47:12;;;;;;;8.75;1.65;;;3.50;99.90;;;;;;5037025;28;20073;-71
2022/12/07 03:49:53;;;;;;;11.23;1.52;;;3.60;99.90;;;;;;5037102;28;20119;-71
2022/12/07 03:52:33;;;;;;;9.18;1.60;;;3.60;99.90;;;;;;5037128;28;20029;-71
2022/12/07 03:55:26;;;;;;;10.90;1.77;;;3.60;99.90;;;;;;5030257;28;20081;-73
2022/12/07 03:58:03;;;;;;;9.85;1.75;;;3.70;99.90;;;;;;5016989;28;20037;-72
2022/12/07 04:00:29;;;;;;;8.18;1.70;;;3.70;99.90;;;;;;5017721;28;20042;-72
2022/12/07 04:02:58;;;;;;;15.38;1.90;;;3.70;99.90;;;;;;5016849;28;20049;-72
2022/12/07 04:05:25;;;;;;;13.00;1.83;;;4.30;99.90;;;;;;5016087;28;20372;-72
2022/12/07 04:07:51;;;;;;;9.30;1.80;;;3.60;99.90;;;;;;5016184;28;20046;-72
2022/12/07 04:10:20;;;;;;;11.30;2.13;;;3.60;99.90;;;;;;5027700;28;20049;-71
2022/12/07 04:12:45;;;;;;;11.88;2.55;;;3.70;99.90;;;;;;5020603;28;20048;-72
2022/12/07 04:15:11;;;;;;;14.18;2.08;;;3.60;99.90;;;;;;5017133;28;20374;-73
2022/12/07 04:17:37;;;;;;;9.40;2.00;;;3.60;99.90;;;;;;5016933;28;20038;-73
2022/12/07 04:20:05;;;;;;;9.18;1.83;;;3.50;99.90;;;;;;5016898;28;20085;-72
2022/12/07 04:22:33;;;;;;;10.20;2.00;;;3.40;99.90;;;;;;5015636;28;20054;-72
2022/12/07 04:24:58;;;;;;;9.27;2.05;;;3.30;99.90;;;;;;5018075;28;20030;-73
2022/12/07 04:27:26;;;;;;;13.68;2.15;;;3.20;99.90;;;;;;5021828;28;20045;-72
2022/12/07 04:29:52;;;;;;;10.80;2.10;;;3.10;99.90;;;;;;5016815;28;20358;-72
2022/12/07 04:32:17;;;;;;;15.10;1.98;;;3.00;99.90;;;;;;5016639;28;20037;-71
2022/12/07 04:34:43;;;;;;;14.10;2.15;;;3.00;99.90;;;;;;5016933;28;20120;-73
2022/12/07 04:37:09;;;;;;;12.60;1.88;;;3.00;99.90;;;;;;5016608;28;20052;-72
2022/12/07 04:39:34;;;;;;;14.43;1.92;;;2.80;99.90;;;;;;4982907;28;20128;-72
2022/12/07 04:42:00;;;;;;;10.50;1.92;;;2.80;99.90;;;;;;5017441;28;20493;-72
2022/12/07 04:44:28;;;;;;;13.82;2.65;;;2.70;99.90;;;;;;5015136;28;20061;-72
2022/12/07 04:46:56;;;;;;;13.90;2.88;;;2.70;99.90;;;;;;5016295;28;20046;-72
2022/12/07 04:49:22;;;;;;;15.73;2.40;;;2.70;99.90;;;;;;5027208;28;20049;-72
2022/12/07 04:51:48;;;;;;;9.25;2.17;;;2.70;99.90;;;;;;5018824;28;20095;-72
2022/12/07 04:54:15;;;;;;;16.75;2.63;;;2.60;99.90;;;;;;5027126;28;20410;-72
2022/12/07 04:56:41;;;;;;;21.75;2.72;;;2.60;99.90;;;;;;5018468;28;20056;-73
2022/12/07 04:59:07;;;;;;;13.23;2.50;;;2.60;99.90;;;;;;5037450;28;20131;-71
2022/12/07 05:01:33;;;;;;;12.23;2.35;;;2.60;99.90;;;;;;5036067;28;20037;-72
2022/12/07 05:04:00;;;;;;;14.90;2.92;;;2.60;99.90;;;;;;5036433;28;20049;-71
2022/12/07 05:06:26;;;;;;;16.02;3.40;;;2.70;99.90;;;;;;5035898;28;20049;-71
2022/12/07 05:08:51;;;;;;;17.52;3.10;;;2.80;99.90;;;;;;5035225;28;20378;-72
2022/12/07 05:14:02;;;;;;;16.85;2.78;;;3.40;99.90;;;;;;5043518;28;20053;-72
2022/12/07 05:16:28;;;;;;;16.95;2.10;;;2.90;99.90;;;;;;5007903;28;20045;-72
2022/12/07 05:18:54;;;;;;;13.60;2.50;;;3.10;99.90;;;;;;5055640;28;20350;-72
2022/12/07 05:21:25;;;;;;;14.30;1.98;;;2.70;99.90;;;;;;5055573;28;20110;-72
2022/12/07 05:23:51;;;;;;;19.45;2.83;;;2.90;99.90;;;;;;5043390;28;20052;-71
2022/12/07 05:26:17;;;;;;;13.20;2.25;;;2.60;99.90;;;;;;5035451;28;20037;-73
2022/12/07 05:28:43;;;;;;;11.48;2.35;;;2.50;99.90;;;;;;5035443;28;20033;-72
2022/12/07 05:31:11;;;;;;;17.98;3.15;;;2.40;99.90;;;;;;5034821;28;20041;-72
2022/12/07 05:33:37;;;;;;;17.90;2.65;;;2.30;99.90;;;;;;5018437;28;20045;-72
2022/12/07 05:36:05;;;;;;;9.50;2.03;;;1.90;99.90;;;;;;5035768;28;20331;-72
2022/12/07 05:38:32;;;;;;;14.02;2.78;;;2.10;99.90;;;;;;5034945;28;20143;-72
2022/12/07 05:41:05;;;;;;;13.77;2.60;;;2.10;99.90;;;;;;5035443;28;20041;-72
2022/12/07 05:43:33;;;;;;;11.93;2.42;;;2.00;99.90;;;;;;5035242;28;20056;-72
2022/12/07 05:45:59;;;;;;;16.30;2.67;;;2.00;99.90;;;;;;5035463;28;20060;-72
2022/12/07 05:48:27;;;;;;;11.20;2.75;;;2.00;99.90;;;;;;5035101;28;20434;-72
2022/12/07 05:50:53;;;;;;;16.13;2.65;;;1.90;99.90;;;;;;5035240;28;20330;-72
2022/12/07 05:53:19;;;;;;;20.45;2.83;;;1.90;99.90;;;;;;5034915;28;20113;-72
2022/12/07 05:55:44;;;;;;;20.27;2.95;;;1.80;99.90;;;;;;5035201;28;20424;-72
2022/12/07 06:00:55;;;;;;;16.27;2.45;;;1.70;99.90;;;;;;5035494;28;20041;-72
2022/12/07 06:03:21;;;;;;;12.07;2.47;;;1.70;99.90;;;;;;5035036;28;20107;-70
2022/12/07 06:05:47;;;;;;;10.73;2.30;;;1.60;99.90;;;;;;5038872;28;20041;-71
2022/12/07 06:08:14;;;;;;;14.30;3.30;;;1.60;99.90;;;;;;5051086;28;20033;-72
2022/12/07 06:10:40;;;;;;;10.65;2.53;;;1.60;99.90;;;;;;5035072;28;20049;-72
2022/12/07 06:13:06;;;;;;;10.38;2.63;;;2.10;99.90;;;;;;5017966;28;20049;-72
2022/12/07 06:15:31;;;;;;;12.52;2.53;;;1.50;99.90;;;;;;5001340;28;20388;-72
2022/12/07 06:17:57;;;;;;;16.40;2.75;;;1.50;99.90;;;;;;5035185;28;20084;-72
2022/12/07 06:20:22;;;;;;;17.42;3.03;;;1.50;99.90;;;;;;5035110;28;20103;-72
2022/12/07 06:22:48;;;;;;;14.80;2.53;;;1.50;99.90;;;;;;5034365;28;20528;-72
2022/12/07 06:25:13;;;;;;;12.98;2.70;;;1.50;99.90;;;;;;5034891;28;20103;-72
2022/12/07 06:27:39;;;;;;;21.17;3.58;;;1.50;99.90;;;;;;5034813;28;20080;-72
2022/12/07 06:30:06;;;;;;;14.57;2.95;;;1.50;99.90;;;;;;5017312;28;20044;-72
2022/12/07 06:32:33;;;;;;;19.10;3.35;;;1.50;99.90;;;;;;5034800;28;20521;-72
2022/12/07 06:34:59;;;;;;;17.80;3.05;;;1.70;99.90;;;;;;5035352;28;20041;-72
2022/12/07 06:37:25;;;;;;;19.90;3.47;;;1.90;99.90;;;;;;5034677;28;20041;-73
2022/12/07 06:39:51;;;;;;;17.20;3.55;;;2.10;99.90;;;;;;5035318;28;20049;-72
2022/12/07 06:42:19;;;;;;;17.80;3.92;;;2.20;99.90;;;;;;5034473;28;20041;-72
2022/12/07 06:44:45;;;;;;;21.92;3.30;;;2.20;99.90;;;;;;5034666;28;20057;-72
2022/12/07 06:47:11;;;;;;;18.38;3.00;;;2.30;99.90;;;;;;5034809;28;20438;-73
2022/12/07 06:49:37;;;;;;;19.88;3.40;;;2.30;99.90;;;;;;5034909;28;20173;-72
2022/12/07 06:52:04;;;;;;;16.38;3.35;;;2.30;99.90;;;;;;5034590;28;20049;-72
2022/12/07 06:54:30;;;;;;;19.88;3.40;;;2.30;99.90;;;;;;5034270;28;20041;-73
2022/12/07 06:56:56;;;;;;;17.15;3.13;;;2.20;99.90;;;;;;5034320;28;20037;-72
2022/12/07 06:59:21;;;;;;;17.15;3.05;;;2.20;99.90;;;;;;5034656;28;20037;-72
2022/12/07 07:01:47;;;;;;;14.60;3.00;;;2.10;99.90;;;;;;5017145;28;20124;-72
2022/12/07 07:04:12;;;;;;;18.80;2.78;;;2.10;99.90;;;;;;5016946;28;20416;-72
2022/12/07 07:06:38;;;;;;;19.45;3.33;;;2.00;99.90;;;;;;5016892;28;20148;-72
2022/12/07 07:09:04;;;;;;;13.70;2.97;;;2.00;99.90;;;;;;5036981;28;20056;-72
2022/12/07 07:11:29;;;;;;;17.63;2.88;;;1.90;99.90;;;;;;5004199;28;20141;-73
2022/12/07 07:13:57;;;;;;;21.42;4.03;;;1.80;99.90;;;;;;5038499;28;20048;-72
2022/12/07 07:16:26;;;;;;;10.07;3.05;;;2.10;99.90;;;;;;5038245;28;20060;-72
2022/12/07 07:18:51;;;;;;;7.53;2.55;;;1.70;99.90;;;;;;5038098;28;20441;-72
2022/12/07 07:21:17;;;;;;;17.52;3.10;;;1.70;99.90;;;;;;5038096;28;20049;-72
2022/12/07 07:23:42;;;;;;;12.77;2.45;;;1.70;99.90;;;;;;5037665;28;20034;-72
2022/12/07 07:26:08;;;;;;;16.25;3.22;;;1.70;99.90;;;;;;5038014;28;20034;-73
2022/12/07 07:28:33;;;;;;;13.40;2.72;;;1.80;99.90;;;;;;5038193;28;20049;-72
2022/12/07 07:30:59;;;;;;;15.95;2.72;;;2.00;99.90;;;;;;5037825;28;20045;-72
2022/12/07 07:33:24;;;;;;;16.42;2.80;;;2.50;99.90;;;;;;5037714;28;20045;-72
2022/12/07 07:35:50;;;;;;;14.82;2.55;;;2.40;99.90;;;;;;5037744;28;20056;-72
2022/12/07 07:38:18;;;;;;;12.75;2.33;;;2.60;99.90;;;;;;5037514;28;20060;-72
2022/12/07 07:40:44;;;;;;;11.98;2.33;;;2.60;99.90;;;;;;5037693;28;20041;-72
2022/12/07 07:43:09;;;;;;;17.10;2.45;;;2.70;99.90;;;;;;5037643;28;20050;-73
2022/12/07 07:45:35;;;;;;;17.27;2.40;;;2.70;99.90;;;;;;5037578;28;20045;-72
2022/12/07 07:48:01;;;;;;;10.23;2.15;;;2.70;99.90;;;;;;5019642;28;20050;-73
2022/12/07 07:50:27;;;;;;;12.85;2.65;;;2.70;99.90;;;;;;5037952;28;20127;-72
2022/12/07 07:52:53;;;;;;;11.73;2.50;;;2.70;99.90;;;;;;5037051;28;20041;-72
2022/12/07 07:55:19;;;;;;;16.45;2.65;;;2.70;99.90;;;;;;5037309;28;20080;-73
2022/12/07 07:57:44;;;;;;;13.50;2.53;;;2.60;99.90;;;;;;5037391;28;20357;-72
2022/12/07 08:00:13;;;;;;;12.27;2.30;;;2.60;99.90;;;;;;5037313;28;20052;-72
2022/12/07 08:02:40;;;;;;;9.02;2.80;;;2.60;99.90;;;;;;5036861;28;20449;-72
2022/12/07 08:05:06;;;;;;;14.55;3.33;;;2.50;99.90;;;;;;5037310;28;20053;-73
2022/12/07 08:07:32;;;;;;;12.38;3.33;;;2.40;99.90;;;;;;5019523;28;20476;-73
2022/12/07 08:09:57;;;;;;;10.30;3.42;;;2.30;99.90;;;;;;5036914;28;20033;-72
2022/12/07 08:12:25;;;;;;;9.38;3.03;;;2.30;99.90;;;;;;5037370;28;20060;-72
2022/12/07 08:14:51;;;;;;;10.57;2.80;;;2.30;99.90;;;;;;5036578;28;20446;-72
2022/12/07 08:17:19;;;;;;;12.23;2.67;;;2.10;99.90;;;;;;5036760;28;20046;-72
2022/12/07 08:19:45;;;;;;;13.85;2.88;;;2.10;99.90;;;;;;5036340;28;20121;-72
2022/12/07 08:22:11;;;;;;;14.07;3.20;;;2.20;99.90;;;;;;5037188;28;20504;-72
2022/12/07 08:24:36;;;;;;;11.02;2.92;;;2.30;99.90;;;;;;5003176;28;20049;-72
2022/12/07 08:27:02;;;;;;;15.18;3.08;;;2.00;99.90;;;;;;5036795;28;20358;-71
2022/12/07 08:29:28;;;;;;;13.00;2.92;;;1.90;99.90;;;;;;5036726;28;20041;-73
2022/12/07 08:31:57;;;;;;;15.20;3.30;;;2.00;99.90;;;;;;5036568;28;20041;-73
2022/12/07 08:34:22;;;;;;;16.52;3.40;;;2.00;99.90;;;;;;5036291;28;20099;-72
2022/12/07 08:36:48;;;;;;;21.08;3.90;;;2.00;99.90;;;;;;5002198;28;20061;-73
2022/12/07 08:39:14;;;;;;;12.50;2.67;;;2.00;99.90;;;;;;5036736;28;20045;-72
2022/12/07 08:41:39;;;;;;;14.70;3.30;;;2.00;99.90;;;;;;5018816;28;20037;-71
2022/12/07 08:44:05;;;;;;;16.75;3.40;;;2.10;99.90;;;;;;5036278;28;20049;-72
2022/12/07 08:46:37;;;;;;;18.27;3.30;;;2.10;99.90;;;;;;5036102;28;20350;-73
2022/12/07 08:49:11;;;;;;;22.02;3.75;;;2.10;99.90;;;;;;5035903;28;20045;-72
2022/12/07 08:51:38;;;;;;;15.90;3.67;;;2.10;99.90;;;;;;5035521;28;20112;-72
2022/12/07 08:54:08;;;;;;;18.15;3.70;;;2.10;99.90;;;;;;5018465;28;20052;-72
2022/12/07 08:56:35;;;;;;;21.45;3.92;;;2.10;99.90;;;;;;5035402;28;20048;-71
2022/12/07 08:59:01;;;;;;;18.85;4.05;;;2.10;99.90;;;;;;5035288;28;20446;-72
2022/12/07 09:01:26;;;;;;;22.70;4.47;;;2.20;99.90;;;;;;5036130;28;20053;-72
2022/12/07 09:03:52;;;;;;;24.50;4.50;;;2.40;99.90;;;;;;5018747;28;20060;-73
2022/12/07 09:06:18;;;;;;;27.45;3.97;;;2.50;99.90;;;;;;5018743;28;20081;-73
2022/12/07 09:08:48;;;;;;;15.27;3.53;;;2.50;99.90;;;;;;5002471;28;20053;-72
2022/12/07 09:11:14;;;;;;;18.85;3.58;;;2.50;99.90;;;;;;5019283;28;20149;-72
2022/12/07 09:13:39;;;;;;;18.73;3.67;;;2.60;99.90;;;;;;5018032;28;20128;-72
2022/12/07 09:16:05;;;;;;;15.95;3.53;;;2.60;99.90;;;;;;5035786;28;20041;-72
2022/12/07 09:18:31;;;;;;;20.85;3.60;;;2.60;99.90;;;;;;5035895;28;20069;-72
2022/12/07 09:20:56;;;;;;;20.17;3.67;;;3.70;99.90;;;;;;5035768;28;20453;-72
2022/12/07 09:23:22;;;;;;;20.48;4.05;;;2.80;99.90;;;;;;5035664;28;20030;-72
2022/12/07 09:25:48;;;;;;;19.45;3.45;;;3.30;99.90;;;;;;5035635;28;20033;-73
2022/12/07 09:28:14;;;;;;;18.48;3.80;;;3.10;99.90;;;;;;5035630;28;20470;-73
2022/12/07 09:30:45;;;;;;;18.50;3.70;;;3.30;99.90;;;;;;5035319;28;20099;-72
2022/12/07 09:33:11;;;;;;;17.45;3.75;;;3.30;99.90;;;;;;5035701;28;20053;-73
2022/12/07 09:35:36;;;;;;;14.55;3.92;;;3.90;99.90;;;;;;5035597;28;20046;-72
2022/12/07 09:38:02;;;;;;;15.50;3.33;;;3.60;99.90;;;;;;5035440;28;20076;-72
2022/12/07 09:40:28;;;;;;;15.95;3.00;;;3.80;99.90;;;;;;5035325;28;20041;-72
2022/12/07 09:42:55;;;;;;;22.40;3.67;;;4.30;99.90;;;;;;5035270;28;20099;-73
2022/12/07 09:45:31;;;;;;;20.23;3.47;;;4.00;99.90;;;;;;5035183;28;20084;-72
2022/12/07 09:47:57;;;;;;;17.25;3.28;;;4.00;99.90;;;;;;5035137;28;20037;-72
2022/12/07 09:50:27;;;;;;;16.70;3.38;;;4.10;99.90;;;;;;5035378;28;20084;-72
2022/12/07 09:52:55;;;;;;;17.25;2.90;;;4.10;99.90;;;;;;5035323;28;20045;-73
2022/12/07 09:55:28;;;;;;;14.82;3.10;;;4.20;99.90;;;;;;5034807;28;20083;-73
2022/12/07 09:57:57;;;;;;;15.00;3.47;;;4.30;99.90;;;;;;5017605;28;20049;-72
2022/12/07 10:00:28;;;;;;;15.88;3.08;;;4.40;99.90;;;;;;5017425;28;20442;-72
2022/12/07 10:02:59;;;;;;;16.40;3.03;;;4.60;99.90;;;;;;5034646;28;20037;-72
2022/12/07 10:05:34;;;;;;;13.52;3.38;;;4.30;99.90;;;;;;5035139;28;20121;-72
2022/12/07 10:07:59;;;;;;;15.95;3.20;;;4.30;99.90;;;;;;5035398;28;20122;-73
2022/12/07 10:10:38;;;;;;;10.95;2.83;;;4.30;99.90;;;;;;5034711;28;20038;-72
2022/12/07 10:13:08;;;;;;;16.63;3.45;;;4.30;99.90;;;;;;5035692;28;20084;-72
2022/12/07 10:15:54;;;;;;;15.98;3.13;;;4.40;99.90;;;;;;5035232;28;20084;-72
2022/12/07 10:18:23;;;;;;;12.88;2.92;;;4.50;99.90;;;;;;5017457;28;20037;-73
2022/12/07 10:20:49;;;;;;;11.93;2.42;;;4.50;99.90;;;;;;5034433;28;20041;-72
2022/12/07 10:23:17;;;;;;;13.00;3.38;;;4.60;99.90;;;;;;5034831;28;20112;-72
2022/12/07 10:25:43;;;;;;;15.20;3.05;;;4.90;99.90;;;;;;5034677;28;20073;-72
2022/12/07 10:28:18;;;;;;;14.10;2.83;;;4.50;99.90;;;;;;5035466;28;20045;-72
2022/12/07 10:30:53;;;;;;;15.30;2.70;;;4.50;99.90;;;;;;5034753;28;20196;-72
2022/12/07 10:33:38;;;;;;;13.20;2.80;;;4.50;99.90;;;;;;5034507;28;20116;-73
2022/12/07 10:36:43;;;;;;;10.85;2.33;;;4.50;99.90;;;;;;5017702;28;20449;-72
2022/12/07 10:39:25;;;;;;;10.68;3.25;;;4.50;99.90;;;;;;5033750;28;20057;-72
2022/12/07 10:42:02;;;;;;;9.68;2.35;;;4.50;99.90;;;;;;5034792;28;20057;-71
2022/12/07 10:44:32;;;;;;;11.57;2.95;;;4.60;99.90;;;;;;5037761;28;20041;-72
2022/12/07 10:47:22;;;;;;;12.57;2.50;;;4.60;99.90;;;;;;5038744;28;20339;-73
2022/12/07 10:50:12;;;;;;;9.93;2.53;;;4.70;99.90;;;;;;5038874;28;20146;-73
2022/12/07 10:52:57;;;;;;;8.90;2.70;;;4.70;99.90;;;;;;5038567;28;20058;-72
2022/12/07 10:55:40;;;;;;;11.90;2.88;;;4.80;99.90;;;;;;5038243;28;20442;-72
2022/12/07 10:58:18;;;;;;;10.43;2.80;;;4.90;99.90;;;;;;5038262;28;20049;-72
2022/12/07 11:01:08;;;;;;;11.18;2.55;;;5.50;99.90;;;;;;5038380;28;20045;-73
2022/12/07 11:03:45;;;;;;;9.23;2.40;;;4.90;99.90;;;;;;5038501;28;20484;-71
2022/12/07 11:06:27;;;;;;;9.93;2.40;;;5.00;99.90;;;;;;5038235;28;20133;-73
2022/12/07 11:09:05;;;;;;;11.13;2.40;;;5.00;99.90;;;;;;5037794;28;20048;-72
2022/12/07 11:11:38;;;;;;;12.88;2.75;;;5.10;99.90;;;;;;5038393;28;20052;-72
2022/12/07 11:14:04;;;;;;;13.27;2.67;;;5.20;99.90;;;;;;5038188;28;20115;-72
2022/12/07 11:16:38;;;;;;;12.85;3.05;;;5.20;99.90;;;;;;5004121;28;20501;-73
2022/12/07 11:19:22;;;;;;;12.50;3.00;;;5.20;99.90;;;;;;5037990;28;20049;-73
2022/12/07 11:21:54;;;;;;;15.40;2.85;;;5.30;99.90;;;;;;5037714;28;20052;-72
2022/12/07 11:24:32;;;;;;;12.65;3.30;;;5.20;99.90;;;;;;5020193;28;20045;-73
2022/12/07 11:27:05;;;;;;;18.75;2.92;;;5.20;99.90;;;;;;5037916;28;20373;-73
2022/12/07 11:29:43;;;;;;;9.85;2.67;;;5.10;99.90;;;;;;5037824;28;20047;-72
2022/12/07 11:32:46;;;;;;;9.65;2.38;;;5.00;99.90;;;;;;5038208;28;20077;-72
2022/12/07 11:35:27;;;;;;;7.20;1.55;;;4.90;99.90;;;;;;5037304;28;20111;-72
2022/12/07 11:38:01;;;;;;;7.50;2.05;;;4.70;99.90;;;;;;5017855;28;20049;-72
2022/12/07 11:40:34;;;;;;;5.63;1.52;;;4.70;99.90;;;;;;5017496;28;20108;-72
2022/12/07 11:43:05;;;;;;;9.07;1.83;;;4.60;99.90;;;;;;5000217;28;20085;-72
2022/12/07 11:45:37;;;;;;;9.88;1.95;;;4.70;99.90;;;;;;5017818;28;20056;-72
2022/12/07 11:48:17;;;;;;;8.23;2.17;;;4.70;99.90;;;;;;5017142;28;20482;-73
2022/12/07 11:50:47;;;;;;;7.78;2.28;;;4.70;99.90;;;;;;5022097;28;20088;-72
2022/12/07 11:53:22;;;;;;;7.85;2.40;;;4.80;99.90;;;;;;5037444;28;20042;-72
2022/12/07 11:55:57;;;;;;;7.95;2.17;;;4.90;99.90;;;;;;5036193;28;20046;-72
2022/12/07 11:58:47;;;;;;;10.70;1.73;;;5.00;99.90;;;;;;5037156;28;20048;-72
2022/12/07 12:01:33;;;;;;;6.20;1.70;;;5.00;99.90;;;;;;5037347;28;20370;-72
2022/12/07 12:04:11;;;;;;;5.05;1.80;;;5.00;99.90;;;;;;5037331;28;20046;-73
2022/12/07 12:06:38;;;;;;;8.13;1.77;;;5.10;99.90;;;;;;5036486;28;20056;-73
2022/12/07 12:09:18;;;;;;;16.85;2.20;;;5.10;99.90;;;;;;5036756;28;20461;-73
2022/12/07 12:12:28;;;;;;;10.80;2.38;;;5.20;99.90;;;;;;5037074;28;20331;-73
2022/12/07 12:15:27;;;;;;;8.32;1.60;;;5.30;99.90;;;;;;5036772;28;20033;-73
2022/12/07 12:18:08;;;;;;;9.38;2.03;;;5.40;99.90;;;;;;5019506;28;20361;-73
2022/12/07 12:20:49;;;;;;;8.80;1.65;;;5.50;99.90;;;;;;5036705;28;20037;-72
2022/12/07 12:23:22;;;;;;;7.60;2.05;;;5.80;99.90;;;;;;5036328;28;20453;-72
2022/12/07 12:25:54;;;;;;;5.85;1.90;;;5.40;99.90;;;;;;5036818;28;20095;-73
2022/12/07 12:28:41;;;;;;;8.95;1.85;;;5.40;99.90;;;;;;5036767;28;20124;-72
2022/12/07 12:31:14;;;;;;;8.45;2.25;;;5.40;99.90;;;;;;5019109;28;20063;-73
2022/12/07 12:34:00;;;;;;;6.27;1.80;;;5.50;99.90;;;;;;5036293;28;20128;-72
2022/12/07 12:36:48;;;;;;;6.93;1.70;;;5.30;99.90;;;;;;5036378;28;20294;-72
2022/12/07 12:39:18;;;;;;;7.15;1.98;;;5.20;99.90;;;;;;5036376;28;20037;-72
2022/12/07 12:44:15;;;;;;;7.85;1.95;;;5.10;99.90;;;;;;5036505;28;20053;-73
2022/12/07 12:46:55;;;;;;;10.95;2.33;;;5.10;99.90;;;;;;5036255;28;20103;-72
2022/12/07 12:49:21;;;;;;;11.00;2.33;;;5.10;99.90;;;;;;5036106;28;20049;-73
2022/12/07 12:51:51;;;;;;;9.18;2.38;;;5.10;99.90;;;;;;5002098;28;20543;-71
2022/12/07 12:54:25;;;;;;;9.07;1.92;;;5.10;99.90;;;;;;5036262;28;20037;-72
2022/12/07 12:57:09;;;;;;;9.07;2.13;;;5.10;99.90;;;;;;5018577;28;20361;-73
2022/12/07 12:59:39;;;;;;;7.40;2.05;;;5.10;99.90;;;;;;5036187;28;20041;-73
2022/12/07 13:02:27;;;;;;;7.50;1.88;;;5.10;99.90;;;;;;5036441;28;20055;-73
2022/12/07 13:05:18;;;;;;;10.27;2.47;;;5.20;99.90;;;;;;5035680;28;20048;-72
2022/12/07 13:07:44;;;;;;;12.98;2.42;;;5.20;99.90;;;;;;5007443;28;20124;-72
2022/12/07 13:10:31;;;;;;;12.70;1.98;;;5.20;99.90;;;;;;5018649;28;20132;-72
2022/12/07 13:12:59;;;;;;;8.45;1.70;;;5.20;99.90;;;;;;5035415;28;20045;-72
2022/12/07 13:15:43;;;;;;;9.73;2.03;;;5.20;99.90;;;;;;5018093;28;20543;-72
2022/12/07 13:18:26;;;;;;;;;;;5.20;99.90;;;;;;5036354;28;20107;-73
2022/12/07 13:20:57;;;;;;;7.90;1.70;;;5.20;99.90;;;;;;5035606;28;19928;-72